Time;durP1;ratioP1;P1;durP2;ratioP2;P2;SDS_P1;SDS_P2;PMS_P1;PMS_P2;Temp;Humidity;BMP_temperature;BMP_pressure;BME280_temperature;BME280_humidity;BME280_pressure;Samples;Min_cycle;Max_cycle;Signal;HPM_P1;HPM_P2
2022/01/14 00:01:21;;;;;;;36.95;13.38;;;;;;;;;;5058193;28;20120;-69
2022/01/14 00:03:50;;;;;;;42.97;14.00;;;;;;;;;;5049964;28;20045;-71
2022/01/14 00:06:18;;;;;;;43.80;13.25;;;;;;;;;;5063739;28;20119;-72
2022/01/14 00:08:46;;;;;;;40.90;13.25;;;;;;;;;;5051711;28;20483;-70
2022/01/14 00:11:17;;;;;;;40.63;12.52;;;;;;;;;;5058690;28;20131;-70
2022/01/14 00:13:53;;;;;;;38.38;12.20;;;;;;;;;;5052168;28;20044;-69
2022/01/14 00:16:23;;;;;;;39.80;13.00;;;;;;;;;;5071501;28;20459;-69
2022/01/14 00:18:51;;;;;;;40.10;13.38;;;;;;;;;;5064307;28;20048;-69
2022/01/14 00:21:19;;;;;;;38.30;12.32;;;;;;;;;;5059389;28;20136;-69
2022/01/14 00:23:51;;;;;;;36.25;12.70;;;;;;;;;;5064964;28;20565;-70
2022/01/14 00:31:57;;;;;;;36.20;11.85;;;;;;;;;;5048533;28;20595;-70
2022/01/14 00:34:26;;;;;;;32.60;11.98;;;;;;;;;;5055288;28;20048;-70
2022/01/14 00:36:54;;;;;;;42.50;12.65;;;;;;;;;;5051823;28;20135;-70
2022/01/14 00:39:22;;;;;;;33.75;12.30;;;;;;;;;;5049223;28;20051;-69
2022/01/14 00:41:50;;;;;;;37.35;11.70;;;;;;;;;;5042278;28;20045;-70
2022/01/14 00:44:19;;;;;;;40.80;12.48;;;;;;;;;;5057536;28;20099;-69
2022/01/14 00:46:48;;;;;;;38.67;12.82;;;;;;;;;;5041466;28;20140;-69
2022/01/14 00:49:19;;;;;;;35.15;12.23;;;;;;;;;;5055088;28;20500;-70
2022/01/14 00:51:48;;;;;;;38.17;12.13;;;;;;;;;;5060854;28;20052;-71
2022/01/14 00:54:17;;;;;;;38.50;12.02;;;;;;;;;;5054447;28;20135;-70
2022/01/14 00:57:00;;;;;;;27.58;10.77;;;;;;;;;;5050881;28;20076;-70
2022/01/14 00:59:27;;;;;;;31.45;10.93;;;;;;;;;;5053741;28;20084;-69
2022/01/14 01:01:58;;;;;;;34.13;12.02;;;;;;;;;;5052932;28;20045;-69
2022/01/14 01:04:31;;;;;;;36.20;12.32;;;;;;;;;;5053040;28;20082;-70
2022/01/14 01:07:00;;;;;;;37.88;12.60;;;;;;;;;;5049687;28;20132;-70
2022/01/14 01:09:30;;;;;;;36.97;13.30;;;;;;;;;;5053649;28;20084;-69
2022/01/14 01:12:09;;;;;;;31.40;13.13;;;;;;;;;;5049879;28;20519;-70
2022/01/14 01:14:43;;;;;;;37.40;13.30;;;;;;;;;;5059994;28;20100;-70
2022/01/14 01:17:11;;;;;;;35.15;12.50;;;;;;;;;;5057178;28;20135;-72
2022/01/14 01:19:41;;;;;;;32.40;11.65;;;;;;;;;;5055882;28;20083;-69
2022/01/14 01:22:10;;;;;;;33.88;11.88;;;;;;;;;;5053285;28;20547;-70
2022/01/14 01:24:38;;;;;;;40.83;12.65;;;;;;;;;;5056003;28;20048;-70
2022/01/14 01:27:08;;;;;;;43.35;12.80;;;;;;;;;;5049461;28;20168;-69
2022/01/14 01:29:50;;;;;;;34.67;12.30;;;;;;;;;;5043501;28;20456;-71
2022/01/14 01:32:18;;;;;;;36.05;11.85;;;;;;;;;;5036246;28;20110;-70
2022/01/14 01:34:48;;;;;;;32.22;12.20;;;;;;;;;;5048712;28;20136;-70
2022/01/14 01:37:16;;;;;;;34.40;12.13;;;;;;;;;;5051235;28;20172;-70
2022/01/14 01:39:45;;;;;;;35.63;14.00;;;;;;;;;;5057986;28;20072;-69
2022/01/14 01:42:13;;;;;;;35.83;12.05;;;;;;;;;;5051623;28;20136;-71
2022/01/14 01:44:44;;;;;;;39.38;14.07;;;;;;;;;;5050786;28;20554;-70
2022/01/14 01:47:13;;;;;;;40.22;12.88;;;;;;;;;;5052648;28;20094;-70
2022/01/14 01:49:41;;;;;;;43.08;13.43;;;;;;;;;;5052124;28;20040;-69
2022/01/14 01:52:10;;;;;;;41.85;12.65;;;;;;;;;;5051066;28;20492;-70
2022/01/14 01:54:39;;;;;;;35.95;11.40;;;;;;;;;;5047473;28;20139;-70
2022/01/14 01:57:07;;;;;;;39.00;11.90;;;;;;;;;;5050488;28;20088;-70
2022/01/14 01:59:35;;;;;;;38.20;13.25;;;;;;;;;;5052501;28;20084;-70
2022/01/14 02:02:04;;;;;;;40.72;14.45;;;;;;;;;;5048906;28;20045;-69
2022/01/14 02:04:33;;;;;;;41.08;13.90;;;;;;;;;;5064663;28;20047;-70
2022/01/14 02:07:01;;;;;;;41.03;12.70;;;;;;;;;;5043819;28;20144;-70
2022/01/14 02:09:31;;;;;;;40.88;13.40;;;;;;;;;;5051339;28;20127;-70
2022/01/14 02:12:05;;;;;;;44.70;13.65;;;;;;;;;;5055399;28;20098;-70
2022/01/14 02:14:54;;;;;;;35.70;11.90;;;;;;;;;;5050143;28;20076;-70
2022/01/14 02:17:45;;;;;;;34.47;12.40;;;;;;;;;;5049781;28;20044;-70
2022/01/14 02:23:09;;;;;;;30.23;10.83;;;;;;;;;;3834553;28;10020727;-69
2022/01/14 02:25:37;;;;;;;35.05;12.57;;;;;;;;;;1741589;28;10002060;-70
2022/01/14 02:28:06;;;;;;;36.35;12.30;;;;;;;;;;5054160;28;20139;-70
2022/01/14 02:30:36;;;;;;;36.00;13.63;;;;;;;;;;5056019;28;20052;-69
2022/01/14 02:33:04;;;;;;;47.67;14.48;;;;;;;;;;5039900;28;20129;-69
2022/01/14 02:35:34;;;;;;;41.22;13.68;;;;;;;;;;5048139;28;20519;-69
2022/01/14 02:38:03;;;;;;;48.55;14.90;;;;;;;;;;5060426;28;20136;-70
2022/01/14 02:40:31;;;;;;;44.63;12.75;;;;;;;;;;5056461;28;20084;-69
2022/01/14 02:43:01;;;;;;;53.15;14.95;;;;;;;;;;5047054;28;20041;-70
2022/01/14 02:45:31;;;;;;;53.15;15.32;;;;;;;;;;5045745;28;20232;-70
2022/01/14 02:48:00;;;;;;;52.88;14.43;;;;;;;;;;5045459;28;20064;-70
2022/01/14 02:50:36;;;;;;;46.58;14.38;;;;;;;;;;5060945;28;20607;-72
2022/01/14 02:53:14;;;;;;;41.10;13.43;;;;;;;;;;5053205;28;20136;-69
2022/01/14 02:55:43;;;;;;;50.03;14.50;;;;;;;;;;5042360;28;20191;-69
2022/01/14 02:58:12;;;;;;;54.15;16.27;;;;;;;;;;5042271;28;20087;-70
2022/01/14 03:00:40;;;;;;;39.38;14.80;;;;;;;;;;5047573;28;20087;-69
2022/01/14 03:03:09;;;;;;;52.50;15.10;;;;;;;;;;5034851;28;20107;-70
2022/01/14 03:05:37;;;;;;;44.25;14.32;;;;;;;;;;5050058;28;20084;-70
2022/01/14 03:08:07;;;;;;;50.15;15.43;;;;;;;;;;5032947;28;20140;-70
2022/01/14 03:10:35;;;;;;;56.28;16.02;;;;;;;;;;5045205;28;20148;-70
2022/01/14 03:13:04;;;;;;;46.17;14.63;;;;;;;;;;5050087;28;20584;-70
2022/01/14 03:15:32;;;;;;;45.45;14.35;;;;;;;;;;5052696;28;20131;-70
2022/01/14 03:18:00;;;;;;;41.90;11.98;;;;;;;;;;5047434;28;20048;-70
2022/01/14 03:20:45;;;;;;;43.03;14.30;;;;;;;;;;5049329;28;20127;-70
2022/01/14 03:23:16;;;;;;;41.25;14.10;;;;;;;;;;5050436;28;20140;-69
2022/01/14 03:25:51;;;;;;;50.20;15.05;;;;;;;;;;5057282;28;20072;-70
2022/01/14 03:28:20;;;;;;;44.28;13.93;;;;;;;;;;5063827;28;20068;-70
2022/01/14 03:30:49;;;;;;;48.17;13.82;;;;;;;;;;5067797;28;20102;-71
2022/01/14 03:33:17;;;;;;;42.78;13.63;;;;;;;;;;5042332;28;20080;-69
2022/01/14 03:35:46;;;;;;;43.80;13.57;;;;;;;;;;5030128;28;20192;-69
2022/01/14 03:38:15;;;;;;;42.13;13.88;;;;;;;;;;5045425;28;20140;-69
2022/01/14 03:40:44;;;;;;;37.80;13.85;;;;;;;;;;5047518;28;20065;-71
2022/01/14 03:43:12;;;;;;;50.97;14.45;;;;;;;;;;5047403;28;20037;-69
2022/01/14 03:45:41;;;;;;;47.08;14.25;;;;;;;;;;5058875;28;20128;-69
2022/01/14 03:48:09;;;;;;;48.42;15.52;;;;;;;;;;5062810;28;20048;-70
2022/01/14 03:50:38;;;;;;;43.83;13.77;;;;;;;;;;5048782;28;20120;-70
2022/01/14 03:53:06;;;;;;;42.58;14.68;;;;;;;;;;5048004;28;20045;-69
2022/01/14 03:55:39;;;;;;;48.80;14.23;;;;;;;;;;5053881;28;20515;-69
2022/01/14 03:58:12;;;;;;;42.83;14.02;;;;;;;;;;5049369;28;20052;-71
2022/01/14 04:00:40;;;;;;;46.38;15.07;;;;;;;;;;5048564;28;20045;-70
2022/01/14 04:03:09;;;;;;;38.22;12.65;;;;;;;;;;5052456;28;20065;-70
2022/01/14 04:05:37;;;;;;;46.22;13.48;;;;;;;;;;5052808;28;20049;-71
2022/01/14 04:08:06;;;;;;;51.55;13.75;;;;;;;;;;5054898;28;20132;-71
2022/01/14 04:10:34;;;;;;;45.83;14.65;;;;;;;;;;5051181;28;20063;-70
2022/01/14 04:13:11;;;;;;;46.90;13.27;;;;;;;;;;5050320;28;20061;-69
2022/01/14 04:15:42;;;;;;;50.13;12.98;;;;;;;;;;5047373;28;20170;-70
2022/01/14 04:18:13;;;;;;;49.15;15.40;;;;;;;;;;5057818;28;20136;-69
2022/01/14 04:20:42;;;;;;;44.95;14.32;;;;;;;;;;5049554;28;20128;-70
2022/01/14 04:23:12;;;;;;;42.75;14.27;;;;;;;;;;5055027;28;20048;-70
2022/01/14 04:25:41;;;;;;;39.13;12.70;;;;;;;;;;5059604;28;20076;-69
2022/01/14 04:28:11;;;;;;;45.60;13.45;;;;;;;;;;5062477;28;20048;-70
2022/01/14 04:30:39;;;;;;;49.13;15.23;;;;;;;;;;5047981;28;20544;-70
2022/01/14 04:33:23;;;;;;;34.77;11.55;;;;;;;;;;3212344;28;10001808;-69
2022/01/14 04:35:51;;;;;;;44.97;13.63;;;;;;;;;;2608154;28;10001555;-70
2022/01/14 04:38:19;;;;;;;37.50;12.40;;;;;;;;;;5050655;28;20117;-70
2022/01/14 04:40:48;;;;;;;40.53;12.75;;;;;;;;;;5052105;28;20080;-69
2022/01/14 04:43:26;;;;;;;33.10;11.92;;;;;;;;;;3856077;28;10023497;-69
2022/01/14 04:46:12;;;;;;;43.03;12.55;;;;;;;;;;2086381;28;10002155;-69
2022/01/14 04:48:41;;;;;;;39.78;13.82;;;;;;;;;;5042815;28;20056;-70
2022/01/14 04:51:10;;;;;;;44.65;14.15;;;;;;;;;;5063358;28;20499;-70
2022/01/14 04:53:39;;;;;;;42.28;12.25;;;;;;;;;;5049433;28;20144;-69
2022/01/14 04:56:08;;;;;;;50.53;13.98;;;;;;;;;;5061794;28;20485;-69
2022/01/14 04:58:37;;;;;;;44.35;14.35;;;;;;;;;;5048010;28;20053;-70
2022/01/14 05:01:08;;;;;;;44.92;13.80;;;;;;;;;;5051970;28;20057;-70
2022/01/14 05:03:37;;;;;;;42.47;13.77;;;;;;;;;;5043383;28;20486;-69
2022/01/14 05:06:08;;;;;;;55.55;15.70;;;;;;;;;;5056790;28;20055;-71
2022/01/14 05:08:39;;;;;;;51.10;15.48;;;;;;;;;;5054154;28;20131;-70
2022/01/14 05:11:23;;;;;;;39.13;13.98;;;;;;;;;;5051974;28;20053;-69
2022/01/14 05:13:52;;;;;;;45.90;14.18;;;;;;;;;;5041949;28;20144;-70
2022/01/14 05:16:21;;;;;;;49.42;13.13;;;;;;;;;;5056344;28;20139;-70
2022/01/14 05:18:49;;;;;;;38.70;13.40;;;;;;;;;;5054696;28;20052;-69
2022/01/14 05:21:19;;;;;;;46.53;15.02;;;;;;;;;;5042477;28;20437;-69
2022/01/14 05:23:48;;;;;;;40.67;13.73;;;;;;;;;;5049755;28;20044;-70
2022/01/14 05:26:16;;;;;;;48.00;13.63;;;;;;;;;;5046126;28;20094;-70
2022/01/14 05:28:44;;;;;;;47.63;13.07;;;;;;;;;;5049861;28;20453;-69
2022/01/14 05:31:14;;;;;;;50.40;13.52;;;;;;;;;;5050233;28;20076;-70
2022/01/14 05:33:46;;;;;;;49.53;14.05;;;;;;;;;;5064446;28;20076;-69
2022/01/14 05:36:18;;;;;;;49.33;14.10;;;;;;;;;;5058754;28;20539;-69
2022/01/14 05:38:47;;;;;;;44.58;14.30;;;;;;;;;;5060161;28;20049;-70
2022/01/14 05:41:18;;;;;;;47.67;14.88;;;;;;;;;;5051389;28;20091;-69
2022/01/14 05:43:46;;;;;;;45.80;14.18;;;;;;;;;;5067606;28;20114;-70
2022/01/14 05:46:16;;;;;;;44.90;13.95;;;;;;;;;;5053315;28;20037;-70
2022/01/14 05:48:44;;;;;;;39.70;12.18;;;;;;;;;;5053802;28;20041;-70
2022/01/14 05:51:13;;;;;;;40.53;13.57;;;;;;;;;;5047889;28;20415;-70
2022/01/14 05:53:41;;;;;;;37.15;14.00;;;;;;;;;;5057926;28;20124;-70
2022/01/14 05:56:09;;;;;;;40.25;13.90;;;;;;;;;;5055589;28;20072;-70
2022/01/14 05:58:47;;;;;;;30.68;9.93;;;;;;;;;;1633562;28;10023114;-70
2022/01/14 06:01:17;;;;;;;43.60;13.80;;;;;;;;;;4005014;28;10001100;-70
2022/01/14 06:03:45;;;;;;;45.25;14.90;;;;;;;;;;5043062;28;20561;-71
2022/01/14 06:06:13;;;;;;;48.63;14.02;;;;;;;;;;5056440;28;20053;-69
2022/01/14 06:08:42;;;;;;;44.38;14.50;;;;;;;;;;5047649;28;20049;-71
2022/01/14 06:11:10;;;;;;;41.85;13.00;;;;;;;;;;5052864;28;20143;-69
2022/01/14 06:13:38;;;;;;;39.88;12.00;;;;;;;;;;5060605;28;20050;-70
2022/01/14 06:16:10;;;;;;;46.58;14.13;;;;;;;;;;5051861;28;20045;-70
2022/01/14 06:18:39;;;;;;;57.90;15.07;;;;;;;;;;5046739;28;20050;-70
2022/01/14 06:21:08;;;;;;;42.28;14.60;;;;;;;;;;5046952;28;20480;-70
2022/01/14 06:23:36;;;;;;;51.85;14.88;;;;;;;;;;5058747;28;20139;-70
2022/01/14 06:26:22;;;;;;;37.67;13.63;;;;;;;;;;5042018;28;20489;-70
2022/01/14 06:28:50;;;;;;;43.67;13.40;;;;;;;;;;5047772;28;20168;-70
2022/01/14 06:31:19;;;;;;;41.63;13.93;;;;;;;;;;5051503;28;20488;-70
2022/01/14 06:33:49;;;;;;;40.70;12.55;;;;;;;;;;5042378;28;20045;-68
2022/01/14 06:36:17;;;;;;;47.15;14.85;;;;;;;;;;5063693;28;20136;-67
2022/01/14 06:38:45;;;;;;;41.78;14.07;;;;;;;;;;5054080;28;20040;-67
2022/01/14 06:41:14;;;;;;;45.10;13.95;;;;;;;;;;5049856;28;20128;-68
2022/01/14 06:43:42;;;;;;;43.22;14.57;;;;;;;;;;5059387;28;20044;-68
2022/01/14 06:46:10;;;;;;;40.08;14.80;;;;;;;;;;5048625;28;20106;-68
2022/01/14 06:48:39;;;;;;;44.35;13.65;;;;;;;;;;5049340;28;20148;-69
2022/01/14 06:51:13;;;;;;;37.72;13.27;;;;;;;;;;5053680;28;20136;-69
2022/01/14 06:53:46;;;;;;;44.90;14.10;;;;;;;;;;5052185;28;20057;-68
2022/01/14 06:56:15;;;;;;;42.40;14.88;;;;;;;;;;5058235;28;20052;-68
2022/01/14 06:58:44;;;;;;;47.17;16.48;;;;;;;;;;5043860;28;20088;-68
2022/01/14 07:01:12;;;;;;;45.50;13.10;;;;;;;;;;5047304;28;20053;-69
2022/01/14 07:03:41;;;;;;;40.80;13.95;;;;;;;;;;5060641;28;20303;-68
2022/01/14 07:06:11;;;;;;;45.92;14.18;;;;;;;;;;5061723;28;20131;-68
2022/01/14 07:08:39;;;;;;;40.08;14.20;;;;;;;;;;5053220;28;20570;-68
2022/01/14 07:11:07;;;;;;;44.30;13.63;;;;;;;;;;5050521;28;20099;-68
2022/01/14 07:13:36;;;;;;;39.88;13.68;;;;;;;;;;5042825;28;20131;-68
2022/01/14 07:16:07;;;;;;;42.47;13.18;;;;;;;;;;5049352;28;20169;-69
2022/01/14 07:18:36;;;;;;;37.47;13.23;;;;;;;;;;5055723;28;20051;-66
2022/01/14 07:21:07;;;;;;;42.83;12.40;;;;;;;;;;5067029;28;20101;-66
2022/01/14 07:23:37;;;;;;;45.42;14.57;;;;;;;;;;5061397;28;20094;-67
2022/01/14 07:26:08;;;;;;;36.20;12.88;;;;;;;;;;5059332;28;20131;-67
2022/01/14 07:28:37;;;;;;;41.17;12.38;;;;;;;;;;5060916;28;20099;-67
2022/01/14 07:31:08;;;;;;;35.53;12.88;;;;;;;;;;5050801;28;20128;-66
2022/01/14 07:33:36;;;;;;;35.55;12.25;;;;;;;;;;5061516;28;20123;-66
2022/01/14 07:36:08;;;;;;;38.20;13.60;;;;;;;;;;5069278;28;20084;-67
2022/01/14 07:38:37;;;;;;;48.45;14.80;;;;;;;;;;5048638;28;20090;-67
2022/01/14 07:41:19;;;;;;;34.62;12.18;;;;;;;;;;3154364;28;10002352;-67
2022/01/14 07:43:49;;;;;;;44.88;14.00;;;;;;;;;;2965958;28;10001507;-67
2022/01/14 07:46:17;;;;;;;43.92;14.18;;;;;;;;;;5036121;28;20098;-67
2022/01/14 07:48:46;;;;;;;41.75;13.00;;;;;;;;;;5049343;28;20485;-67
2022/01/14 07:51:14;;;;;;;45.80;15.40;;;;;;;;;;5049096;28;20131;-66
2022/01/14 07:53:43;;;;;;;45.42;14.82;;;;;;;;;;5060294;28;20179;-67
2022/01/14 07:56:13;;;;;;;36.88;13.27;;;;;;;;;;5053226;28;20057;-67
2022/01/14 07:58:42;;;;;;;42.03;13.35;;;;;;;;;;5054299;28;20084;-69
2022/01/14 08:01:11;;;;;;;39.35;12.27;;;;;;;;;;5051327;28;20057;-67
2022/01/14 08:03:39;;;;;;;35.13;12.38;;;;;;;;;;5057771;28;20053;-67
2022/01/14 08:06:09;;;;;;;44.78;14.52;;;;;;;;;;5053056;28;20481;-67
2022/01/14 08:08:39;;;;;;;36.67;13.25;;;;;;;;;;5052496;28;20045;-67
2022/01/14 08:11:08;;;;;;;37.10;12.82;;;;;;;;;;5033397;28;20081;-68
2022/01/14 08:13:37;;;;;;;34.60;13.27;;;;;;;;;;5036068;28;20045;-67
2022/01/14 08:16:08;;;;;;;43.28;13.75;;;;;;;;;;5035316;28;20132;-67
2022/01/14 08:18:37;;;;;;;40.20;12.63;;;;;;;;;;5033979;28;20076;-67
2022/01/14 08:21:09;;;;;;;43.53;14.30;;;;;;;;;;5036867;28;20141;-67
2022/01/14 08:23:39;;;;;;;40.83;13.02;;;;;;;;;;5052702;28;20048;-66
2022/01/14 08:26:09;;;;;;;41.30;12.10;;;;;;;;;;5050497;28;20063;-67
2022/01/14 08:28:37;;;;;;;36.75;13.52;;;;;;;;;;5042096;28;20451;-67
2022/01/14 08:31:08;;;;;;;43.80;14.23;;;;;;;;;;5043660;28;20045;-66
2022/01/14 08:33:37;;;;;;;36.08;12.98;;;;;;;;;;5051843;28;20059;-67
2022/01/14 08:36:09;;;;;;;42.63;13.57;;;;;;;;;;5038626;28;20099;-67
2022/01/14 08:38:37;;;;;;;38.67;13.18;;;;;;;;;;5042909;28;20463;-67
2022/01/14 08:41:11;;;;;;;36.60;12.40;;;;;;;;;;5047787;28;20144;-66
2022/01/14 08:43:40;;;;;;;30.40;11.52;;;;;;;;;;5052329;28;20057;-67
2022/01/14 08:46:09;;;;;;;34.83;12.30;;;;;;;;;;5049050;28;20049;-68
2022/01/14 08:48:38;;;;;;;35.08;11.00;;;;;;;;;;5053818;28;20045;-67
2022/01/14 08:51:07;;;;;;;33.70;12.30;;;;;;;;;;5053039;28;20464;-66
2022/01/14 08:53:35;;;;;;;29.60;10.35;;;;;;;;;;5063912;28;20044;-67
2022/01/14 08:56:07;;;;;;;27.73;10.35;;;;;;;;;;5056681;28;20060;-67
2022/01/14 08:58:39;;;;;;;28.60;10.18;;;;;;;;;;5052027;28;20047;-66
2022/01/14 09:01:08;;;;;;;29.20;10.45;;;;;;;;;;5051872;28;20045;-66
2022/01/14 09:03:38;;;;;;;26.65;10.73;;;;;;;;;;5059551;28;20136;-67
2022/01/14 09:06:10;;;;;;;27.48;9.95;;;;;;;;;;5041739;28;20528;-66
2022/01/14 09:08:39;;;;;;;21.52;9.20;;;;;;;;;;5058167;28;20044;-67
2022/01/14 09:11:08;;;;;;;34.58;11.80;;;;;;;;;;5053479;28;20419;-67
2022/01/14 09:13:38;;;;;;;27.55;11.35;;;;;;;;;;5052208;28;20053;-67
2022/01/14 09:16:07;;;;;;;24.52;9.05;;;;;;;;;;5049600;28;20048;-67
2022/01/14 09:18:36;;;;;;;23.08;9.75;;;;;;;;;;5050242;28;20084;-67
2022/01/14 09:21:08;;;;;;;25.70;10.77;;;;;;;;;;5066968;28;20048;-67
2022/01/14 09:23:37;;;;;;;24.33;10.55;;;;;;;;;;5067095;28;20399;-67
2022/01/14 09:26:09;;;;;;;22.10;8.88;;;;;;;;;;5059507;28;20461;-67
2022/01/14 09:28:39;;;;;;;24.80;9.32;;;;;;;;;;5056428;28;20049;-67
2022/01/14 09:31:07;;;;;;;24.63;9.93;;;;;;;;;;5063490;28;20057;-67
2022/01/14 09:33:37;;;;;;;23.90;10.30;;;;;;;;;;5052301;28;20056;-67
2022/01/14 09:36:10;;;;;;;29.98;9.98;;;;;;;;;;5045968;28;20419;-67
2022/01/14 09:38:57;;;;;;;20.83;8.66;;;;;;;;;;4531120;28;10001835;-67
2022/01/14 09:41:26;;;;;;;22.50;9.70;;;;;;;;;;1381758;28;10002058;-68
2022/01/14 09:43:57;;;;;;;26.55;10.35;;;;;;;;;;5053286;28;20060;-68
2022/01/14 09:46:26;;;;;;;22.98;9.93;;;;;;;;;;5057945;28;20041;-68
2022/01/14 09:48:55;;;;;;;21.95;8.73;;;;;;;;;;5050259;28;20564;-69
2022/01/14 09:51:24;;;;;;;21.77;9.90;;;;;;;;;;5051649;28;20044;-69
2022/01/14 09:53:52;;;;;;;25.17;9.38;;;;;;;;;;5050894;28;20064;-69
2022/01/14 09:56:22;;;;;;;24.73;10.18;;;;;;;;;;5061349;28;20478;-69
2022/01/14 09:58:51;;;;;;;22.65;9.40;;;;;;;;;;5054740;28;20064;-68
2022/01/14 10:01:22;;;;;;;25.00;9.85;;;;;;;;;;5057209;28;20045;-68
2022/01/14 10:03:53;;;;;;;22.42;9.93;;;;;;;;;;5062208;28;20487;-69
2022/01/14 10:06:38;;;;;;;24.65;10.10;;;;;;;;;;5057243;28;20057;-69
2022/01/14 10:09:09;;;;;;;19.40;9.55;;;;;;;;;;5050382;28;20052;-69
2022/01/14 10:11:38;;;;;;;26.55;10.73;;;;;;;;;;5055367;28;20407;-69
2022/01/14 10:14:08;;;;;;;21.58;9.32;;;;;;;;;;5067432;28;20041;-69
2022/01/14 10:16:41;;;;;;;23.55;10.40;;;;;;;;;;5048166;28;20069;-69
2022/01/14 10:19:20;;;;;;;25.20;10.52;;;;;;;;;;5055206;28;20508;-69
2022/01/14 10:21:50;;;;;;;24.35;10.13;;;;;;;;;;5054970;28;20045;-69
2022/01/14 10:24:20;;;;;;;19.95;9.40;;;;;;;;;;5054351;28;20668;-69
2022/01/14 10:26:50;;;;;;;23.98;9.65;;;;;;;;;;5050631;28;20067;-69
2022/01/14 10:29:27;;;;;;;26.33;11.07;;;;;;;;;;5059406;28;20045;-69
2022/01/14 10:31:57;;;;;;;30.02;10.05;;;;;;;;;;5049135;28;20060;-69
2022/01/14 10:34:26;;;;;;;23.20;9.18;;;;;;;;;;5045425;28;20044;-69
2022/01/14 10:37:09;;;;;;;28.52;10.05;;;;;;;;;;5063560;28;20127;-69
2022/01/14 10:39:44;;;;;;;24.33;9.98;;;;;;;;;;5056846;28;20086;-69
2022/01/14 10:42:22;;;;;;;27.52;10.73;;;;;;;;;;5049612;28;20055;-69
2022/01/14 10:45:13;;;;;;;25.70;10.35;;;;;;;;;;5041387;28;20129;-70
2022/01/14 10:47:51;;;;;;;27.63;9.17;;;;;;;;;;5042914;28;20049;-69
2022/01/14 10:50:26;;;;;;;30.55;9.93;;;;;;;;;;5057658;28;20055;-69
2022/01/14 10:52:55;;;;;;;27.95;10.00;;;;;;;;;;5054476;28;20531;-69
2022/01/14 10:55:32;;;;;;;20.75;8.77;;;;;;;;;;5053229;28;20087;-69
2022/01/14 10:58:02;;;;;;;22.65;9.38;;;;;;;;;;5050163;28;20085;-69
2022/01/14 11:00:47;;;;;;;22.45;9.20;;;;;;;;;;5050977;28;20102;-69
2022/01/14 11:03:18;;;;;;;21.70;9.65;;;;;;;;;;5055203;28;20052;-68
2022/01/14 11:05:46;;;;;;;20.95;9.50;;;;;;;;;;5063542;28;20048;-69
2022/01/14 11:08:15;;;;;;;18.58;8.48;;;;;;;;;;5062885;28;20053;-69
2022/01/14 11:10:44;;;;;;;23.70;8.95;;;;;;;;;;5052712;28;20061;-68
2022/01/14 11:13:12;;;;;;;23.80;9.07;;;;;;;;;;5049280;28;20037;-69
2022/01/14 11:15:41;;;;;;;20.10;8.32;;;;;;;;;;5051391;28;20045;-68
2022/01/14 11:18:10;;;;;;;23.73;9.30;;;;;;;;;;5043287;28;20072;-68
2022/01/14 11:23:23;;;;;;;19.02;9.05;;;;;;;;;;5032319;28;20053;-68
2022/01/14 11:25:57;;;;;;;23.85;9.15;;;;;;;;;;5038971;28;20056;-69
2022/01/14 11:28:28;;;;;;;21.50;8.52;;;;;;;;;;5044937;28;20147;-69
2022/01/14 11:30:57;;;;;;;21.67;9.38;;;;;;;;;;5042793;28;20470;-69
2022/01/14 11:33:39;;;;;;;20.20;8.93;;;;;;;;;;5037436;28;20366;-68
2022/01/14 11:36:10;;;;;;;21.50;8.55;;;;;;;;;;5038898;28;20052;-69
2022/01/14 11:38:41;;;;;;;21.42;9.25;;;;;;;;;;5049707;28;20516;-69
2022/01/14 11:41:40;;;;;;;17.17;8.54;;;;;;;;;;2912522;28;10003279;-68
2022/01/14 11:44:09;;;;;;;18.80;8.57;;;;;;;;;;3667130;28;10001222;-69
2022/01/14 11:46:45;;;;;;;20.83;7.95;;;;;;;;;;5047908;28;20147;-68
2022/01/14 11:49:34;;;;;;;20.00;9.43;;;;;;;;;;5044327;28;20409;-69
2022/01/14 11:52:06;;;;;;;19.45;9.52;;;;;;;;;;5048638;28;20044;-69
2022/01/14 11:54:42;;;;;;;20.77;8.27;;;;;;;;;;5045804;28;20657;-69
2022/01/14 11:57:12;;;;;;;26.73;9.50;;;;;;;;;;5048727;28;20505;-69
2022/01/14 11:59:45;;;;;;;26.83;9.13;;;;;;;;;;5045154;28;20084;-69
2022/01/14 12:02:26;;;;;;;22.40;9.10;;;;;;;;;;5052685;28;20179;-69
2022/01/14 12:05:13;;;;;;;19.05;7.85;;;;;;;;;;5049166;28;20132;-69
2022/01/14 12:08:00;;;;;;;20.90;7.97;;;;;;;;;;5045519;28;20050;-69
2022/01/14 12:10:31;;;;;;;22.85;8.10;;;;;;;;;;5048928;28;20503;-69
2022/01/14 12:13:14;;;;;;;15.43;7.38;;;;;;;;;;5045868;28;20556;-69
2022/01/14 12:15:47;;;;;;;17.92;7.50;;;;;;;;;;5045935;28;20373;-69
2022/01/14 12:18:16;;;;;;;21.33;6.72;;;;;;;;;;5047837;28;20075;-69
2022/01/14 12:20:49;;;;;;;17.25;7.13;;;;;;;;;;5045659;28;20048;-69
2022/01/14 12:23:19;;;;;;;16.77;6.38;;;;;;;;;;5048012;28;20083;-69
2022/01/14 12:25:49;;;;;;;16.85;6.70;;;;;;;;;;5048882;28;20507;-69
2022/01/14 12:28:18;;;;;;;17.00;6.63;;;;;;;;;;5047663;28;20057;-69
2022/01/14 12:30:57;;;;;;;16.08;6.15;;;;;;;;;;5041816;28;20045;-69
2022/01/14 12:33:42;;;;;;;18.45;6.18;;;;;;;;;;5040433;28;20045;-69
2022/01/14 12:36:12;;;;;;;16.42;6.95;;;;;;;;;;5045188;28;20111;-69
2022/01/14 12:38:41;;;;;;;17.45;5.97;;;;;;;;;;5043237;28;20381;-69
2022/01/14 12:41:16;;;;;;;13.65;5.50;;;;;;;;;;5045930;28;20057;-70
2022/01/14 12:43:48;;;;;;;14.68;6.03;;;;;;;;;;5048365;28;20136;-69
2022/01/14 12:46:35;;;;;;;17.27;6.53;;;;;;;;;;5049883;28;20477;-69
2022/01/14 12:49:07;;;;;;;17.38;6.25;;;;;;;;;;5051628;28;20095;-69
2022/01/14 12:51:36;;;;;;;14.93;5.90;;;;;;;;;;5049524;28;20132;-69
2022/01/14 12:54:07;;;;;;;22.17;6.22;;;;;;;;;;5054048;28;20051;-69
2022/01/14 12:56:40;;;;;;;15.48;5.32;;;;;;;;;;5048521;28;20118;-69
2022/01/14 12:59:10;;;;;;;14.73;5.75;;;;;;;;;;5049064;28;20049;-69
2022/01/14 13:01:40;;;;;;;13.05;6.00;;;;;;;;;;5049378;28;20045;-70
2022/01/14 13:04:10;;;;;;;13.13;5.88;;;;;;;;;;5051021;28;20048;-69
2022/01/14 13:06:42;;;;;;;14.25;6.60;;;;;;;;;;5054019;28;20052;-70
2022/01/14 13:09:11;;;;;;;15.38;6.32;;;;;;;;;;5049738;28;20390;-70
2022/01/14 13:11:58;;;;;;;15.50;6.60;;;;;;;;;;5047064;28;20048;-70
2022/01/14 13:14:27;;;;;;;15.38;5.72;;;;;;;;;;5049790;28;20500;-70
2022/01/14 13:16:57;;;;;;;12.38;5.15;;;;;;;;;;5045010;28;20338;-69
2022/01/14 13:19:27;;;;;;;11.48;5.90;;;;;;;;;;5046358;28;20574;-69
2022/01/14 13:21:56;;;;;;;15.30;5.97;;;;;;;;;;5044702;28;20048;-70
2022/01/14 13:24:26;;;;;;;13.38;6.13;;;;;;;;;;5035161;28;20505;-69
2022/01/14 13:27:03;;;;;;;15.15;6.20;;;;;;;;;;5046893;28;20056;-70
2022/01/14 13:29:36;;;;;;;13.20;5.80;;;;;;;;;;5036722;28;20041;-70
2022/01/14 13:32:06;;;;;;;15.82;6.45;;;;;;;;;;5046124;28;20052;-69
2022/01/14 13:34:34;;;;;;;12.45;6.07;;;;;;;;;;5045542;28;20126;-70
2022/01/14 13:37:04;;;;;;;14.55;5.70;;;;;;;;;;5042543;28;20049;-70
2022/01/14 13:39:33;;;;;;;13.70;5.95;;;;;;;;;;5044344;28;20041;-70
2022/01/14 13:42:03;;;;;;;14.95;6.57;;;;;;;;;;5043681;28;20049;-70
2022/01/14 13:44:34;;;;;;;10.50;5.75;;;;;;;;;;5042837;28;20080;-69
2022/01/14 13:47:07;;;;;;;12.73;5.40;;;;;;;;;;5045682;28;20139;-70
2022/01/14 13:49:36;;;;;;;12.70;5.88;;;;;;;;;;5045960;28;20055;-70
2022/01/14 13:52:07;;;;;;;16.10;5.20;;;;;;;;;;5045605;28;20136;-70
2022/01/14 13:54:36;;;;;;;16.80;5.45;;;;;;;;;;5046828;28;20084;-69
2022/01/14 13:57:18;;;;;;;;;;;;;;;;;;2833341;28;10003012;-70
2022/01/14 13:59:48;;;;;;;10.90;4.65;;;;;;;;;;2954867;28;10001148;-67
2022/01/14 14:02:24;;;;;;;13.48;4.70;;;;;;;;;;5043967;28;20500;-69
2022/01/14 14:04:55;;;;;;;11.32;4.35;;;;;;;;;;5047818;28;20056;-69
2022/01/14 14:07:26;;;;;;;9.05;4.10;;;;;;;;;;5044979;28;20049;-69
2022/01/14 14:10:18;;;;;;;9.73;3.97;;;;;;;;;;5044676;28;20056;-68
2022/01/14 14:12:49;;;;;;;10.95;3.50;;;;;;;;;;5028050;28;20048;-69
2022/01/14 14:18:07;;;;;;;11.43;3.88;;;;;;;;;;5045831;28;20346;-68
2022/01/14 14:20:36;;;;;;;10.50;3.53;;;;;;;;;;5046944;28;20484;-69
2022/01/14 14:23:21;;;;;;;11.00;3.50;;;;;;;;;;5046516;28;20053;-68
2022/01/14 14:25:51;;;;;;;9.60;3.83;;;;;;;;;;5045178;28;20471;-70
2022/01/14 14:28:26;;;;;;;7.63;3.55;;;;;;;;;;5046634;28;20416;-70
2022/01/14 14:30:56;;;;;;;7.90;3.70;;;;;;;;;;5045233;28;20055;-69
2022/01/14 14:33:25;;;;;;;7.10;3.00;;;;;;;;;;5043008;28;20044;-68
2022/01/14 14:35:57;;;;;;;11.68;3.10;;;;;;;;;;5061723;28;20056;-68
2022/01/14 14:38:28;;;;;;;8.00;3.33;;;;;;;;;;5059179;28;20516;-69
2022/01/14 14:41:08;;;;;;;5.72;3.20;;;;;;;;;;5040726;28;20106;-69
2022/01/14 14:43:38;;;;;;;4.70;2.40;;;;;;;;;;5060533;28;20055;-68
2022/01/14 14:46:10;;;;;;;7.05;3.30;;;;;;;;;;5055184;28;20044;-69
2022/01/14 14:48:39;;;;;;;8.15;3.30;;;;;;;;;;5053569;28;20056;-68
2022/01/14 14:51:07;;;;;;;5.85;2.95;;;;;;;;;;5048175;28;20073;-68
2022/01/14 14:53:36;;;;;;;5.40;2.70;;;;;;;;;;5057419;28;20143;-68
2022/01/14 14:56:10;;;;;;;5.15;2.85;;;;;;;;;;5048987;28;20542;-69
2022/01/14 14:58:39;;;;;;;4.95;2.70;;;;;;;;;;5049983;28;20352;-69